sensor_id;sensor_type;location;lat;lon;timestamp;P1;durP1;ratioP1;P2;durP2;ratioP2
21046;SDS011;10682;50.874;3.656;2023-03-01T00:01:42;26.30;;;13.00;;
21046;SDS011;10682;50.874;3.656;2023-03-01T00:04:09;23.60;;;13.60;;
21046;SDS011;10682;50.874;3.656;2023-03-01T00:06:36;22.03;;;12.27;;
21046;SDS011;10682;50.874;3.656;2023-03-01T00:09:04;20.73;;;12.77;;
21046;SDS011;10682;50.874;3.656;2023-03-01T00:11:33;23.90;;;13.23;;
21046;SDS011;10682;50.874;3.656;2023-03-01T00:16:39;23.13;;;13.27;;
21046;SDS011;10682;50.874;3.656;2023-03-01T00:19:15;22.80;;;12.97;;
21046;SDS011;10682;50.874;3.656;2023-03-01T00:21:45;19.77;;;12.17;;
21046;SDS011;10682;50.874;3.656;2023-03-01T00:24:14;22.13;;;12.37;;
21046;SDS011;10682;50.874;3.656;2023-03-01T00:26:41;23.73;;;13.00;;
21046;SDS011;10682;50.874;3.656;2023-03-01T00:29:08;20.87;;;12.30;;
21046;SDS011;10682;50.874;3.656;2023-03-01T00:31:35;23.83;;;13.03;;
21046;SDS011;10682;50.874;3.656;2023-03-01T00:34:03;22.80;;;12.20;;
21046;SDS011;10682;50.874;3.656;2023-03-01T00:36:33;20.80;;;13.37;;
21046;SDS011;10682;50.874;3.656;2023-03-01T00:39:07;22.33;;;12.40;;
21046;SDS011;10682;50.874;3.656;2023-03-01T00:41:40;21.70;;;12.47;;
21046;SDS011;10682;50.874;3.656;2023-03-01T00:44:07;21.80;;;12.47;;
21046;SDS011;10682;50.874;3.656;2023-03-01T00:46:38;23.27;;;12.60;;
21046;SDS011;10682;50.874;3.656;2023-03-01T00:49:05;22.27;;;12.60;;
21046;SDS011;10682;50.874;3.656;2023-03-01T00:51:32;23.27;;;12.60;;
21046;SDS011;10682;50.874;3.656;2023-03-01T00:54:01;24.53;;;13.00;;
21046;SDS011;10682;50.874;3.656;2023-03-01T00:56:29;22.20;;;12.53;;
21046;SDS011;10682;50.874;3.656;2023-03-01T00:58:57;21.90;;;11.70;;
21046;SDS011;10682;50.874;3.656;2023-03-01T01:01:25;22.03;;;12.30;;
21046;SDS011;10682;50.874;3.656;2023-03-01T01:03:56;20.93;;;12.00;;
21046;SDS011;10682;50.874;3.656;2023-03-01T01:06:36;22.87;;;12.67;;
21046;SDS011;10682;50.874;3.656;2023-03-01T01:09:06;25.27;;;12.30;;
21046;SDS011;10682;50.874;3.656;2023-03-01T01:11:34;20.43;;;12.17;;
21046;SDS011;10682;50.874;3.656;2023-03-01T01:14:05;23.37;;;11.90;;
21046;SDS011;10682;50.874;3.656;2023-03-01T01:16:32;28.10;;;13.63;;
21046;SDS011;10682;50.874;3.656;2023-03-01T01:18:59;25.43;;;13.30;;
21046;SDS011;10682;50.874;3.656;2023-03-01T01:21:27;24.00;;;12.90;;
21046;SDS011;10682;50.874;3.656;2023-03-01T01:23:54;23.83;;;12.73;;
21046;SDS011;10682;50.874;3.656;2023-03-01T01:26:32;25.60;;;13.50;;
21046;SDS011;10682;50.874;3.656;2023-03-01T01:29:01;23.50;;;13.43;;
21046;SDS011;10682;50.874;3.656;2023-03-01T01:31:30;21.30;;;12.50;;
21046;SDS011;10682;50.874;3.656;2023-03-01T01:34:00;23.40;;;12.60;;
21046;SDS011;10682;50.874;3.656;2023-03-01T01:36:29;23.60;;;13.37;;
21046;SDS011;10682;50.874;3.656;2023-03-01T01:38:57;24.43;;;13.07;;
21046;SDS011;10682;50.874;3.656;2023-03-01T01:41:27;29.40;;;13.60;;
21046;SDS011;10682;50.874;3.656;2023-03-01T01:47:35;24.33;;;12.87;;
21046;SDS011;10682;50.874;3.656;2023-03-01T01:50:02;22.70;;;12.50;;
21046;SDS011;10682;50.874;3.656;2023-03-01T01:55:07;26.90;;;13.00;;
21046;SDS011;10682;50.874;3.656;2023-03-01T01:57:39;23.97;;;12.60;;
21046;SDS011;10682;50.874;3.656;2023-03-01T02:00:21;25.03;;;13.17;;
21046;SDS011;10682;50.874;3.656;2023-03-01T02:02:55;25.43;;;12.90;;
21046;SDS011;10682;50.874;3.656;2023-03-01T02:08:21;22.90;;;12.10;;
21046;SDS011;10682;50.874;3.656;2023-03-01T02:10:54;23.63;;;12.00;;
21046;SDS011;10682;50.874;3.656;2023-03-01T02:13:22;22.37;;;11.80;;
21046;SDS011;10682;50.874;3.656;2023-03-01T02:15:50;23.33;;;12.43;;
21046;SDS011;10682;50.874;3.656;2023-03-01T02:18:17;20.70;;;11.97;;
21046;SDS011;10682;50.874;3.656;2023-03-01T02:24:54;24.67;;;10.97;;
21046;SDS011;10682;50.874;3.656;2023-03-01T02:27:54;20.20;;;10.33;;
21046;SDS011;10682;50.874;3.656;2023-03-01T02:30:40;17.53;;;10.13;;
21046;SDS011;10682;50.874;3.656;2023-03-01T02:33:29;22.00;;;11.97;;
21046;SDS011;10682;50.874;3.656;2023-03-01T02:36:00;20.30;;;10.63;;
21046;SDS011;10682;50.874;3.656;2023-03-01T02:38:31;20.73;;;11.27;;
21046;SDS011;10682;50.874;3.656;2023-03-01T02:40:59;21.37;;;11.97;;
21046;SDS011;10682;50.874;3.656;2023-03-01T02:43:30;22.77;;;11.30;;
21046;SDS011;10682;50.874;3.656;2023-03-01T02:46:02;16.77;;;10.43;;
21046;SDS011;10682;50.874;3.656;2023-03-01T02:49:00;18.33;;;10.37;;
21046;SDS011;10682;50.874;3.656;2023-03-01T02:54:27;20.67;;;10.90;;
21046;SDS011;10682;50.874;3.656;2023-03-01T02:57:00;19.63;;;10.57;;
21046;SDS011;10682;50.874;3.656;2023-03-01T02:59:29;17.70;;;10.43;;
21046;SDS011;10682;50.874;3.656;2023-03-01T03:02:06;17.97;;;10.47;;
21046;SDS011;10682;50.874;3.656;2023-03-01T03:04:34;20.13;;;10.77;;
21046;SDS011;10682;50.874;3.656;2023-03-01T03:07:01;19.03;;;10.90;;
21046;SDS011;10682;50.874;3.656;2023-03-01T03:09:28;19.47;;;10.30;;
21046;SDS011;10682;50.874;3.656;2023-03-01T03:11:55;20.27;;;11.10;;
21046;SDS011;10682;50.874;3.656;2023-03-01T03:14:22;20.00;;;10.67;;
21046;SDS011;10682;50.874;3.656;2023-03-01T03:16:50;17.57;;;10.83;;
21046;SDS011;10682;50.874;3.656;2023-03-01T03:19:17;18.77;;;10.57;;
21046;SDS011;10682;50.874;3.656;2023-03-01T03:21:45;22.97;;;11.03;;
21046;SDS011;10682;50.874;3.656;2023-03-01T03:24:13;20.10;;;10.90;;
21046;SDS011;10682;50.874;3.656;2023-03-01T03:26:52;20.37;;;11.10;;
21046;SDS011;10682;50.874;3.656;2023-03-01T03:29:19;19.53;;;10.67;;
21046;SDS011;10682;50.874;3.656;2023-03-01T03:31:46;20.93;;;10.33;;
21046;SDS011;10682;50.874;3.656;2023-03-01T03:34:13;19.07;;;10.17;;
21046;SDS011;10682;50.874;3.656;2023-03-01T03:36:44;21.27;;;11.37;;
21046;SDS011;10682;50.874;3.656;2023-03-01T03:39:11;21.70;;;11.10;;
21046;SDS011;10682;50.874;3.656;2023-03-01T03:44:10;20.27;;;10.60;;
21046;SDS011;10682;50.874;3.656;2023-03-01T03:46:37;18.57;;;9.87;;
21046;SDS011;10682;50.874;3.656;2023-03-01T03:49:04;20.87;;;10.17;;
21046;SDS011;10682;50.874;3.656;2023-03-01T03:51:31;20.70;;;10.83;;
21046;SDS011;10682;50.874;3.656;2023-03-01T03:53:58;22.07;;;10.87;;
21046;SDS011;10682;50.874;3.656;2023-03-01T03:56:25;20.97;;;10.20;;
21046;SDS011;10682;50.874;3.656;2023-03-01T03:58:54;20.50;;;10.83;;
21046;SDS011;10682;50.874;3.656;2023-03-01T04:01:21;18.90;;;10.50;;
21046;SDS011;10682;50.874;3.656;2023-03-01T04:03:48;19.20;;;10.27;;
21046;SDS011;10682;50.874;3.656;2023-03-01T04:06:20;20.13;;;10.83;;
21046;SDS011;10682;50.874;3.656;2023-03-01T04:08:48;19.33;;;10.57;;
21046;SDS011;10682;50.874;3.656;2023-03-01T04:11:26;19.93;;;11.47;;
21046;SDS011;10682;50.874;3.656;2023-03-01T04:13:54;22.00;;;11.73;;
21046;SDS011;10682;50.874;3.656;2023-03-01T04:16:24;24.20;;;11.57;;
21046;SDS011;10682;50.874;3.656;2023-03-01T04:18:52;22.87;;;11.77;;
21046;SDS011;10682;50.874;3.656;2023-03-01T04:21:19;22.33;;;11.47;;
21046;SDS011;10682;50.874;3.656;2023-03-01T04:23:47;24.60;;;11.80;;
21046;SDS011;10682;50.874;3.656;2023-03-01T04:26:14;24.07;;;11.77;;
21046;SDS011;10682;50.874;3.656;2023-03-01T04:28:42;24.00;;;11.80;;
21046;SDS011;10682;50.874;3.656;2023-03-01T04:31:12;22.47;;;11.77;;
21046;SDS011;10682;50.874;3.656;2023-03-01T04:33:47;20.93;;;10.97;;
21046;SDS011;10682;50.874;3.656;2023-03-01T04:36:18;22.73;;;12.00;;
21046;SDS011;10682;50.874;3.656;2023-03-01T04:41:56;25.23;;;12.27;;
21046;SDS011;10682;50.874;3.656;2023-03-01T04:44:23;23.57;;;11.77;;
21046;SDS011;10682;50.874;3.656;2023-03-01T04:46:50;23.80;;;12.33;;
21046;SDS011;10682;50.874;3.656;2023-03-01T04:49:17;22.90;;;11.90;;
21046;SDS011;10682;50.874;3.656;2023-03-01T04:51:46;23.43;;;12.07;;
21046;SDS011;10682;50.874;3.656;2023-03-01T04:54:13;22.17;;;12.17;;
21046;SDS011;10682;50.874;3.656;2023-03-01T04:56:40;25.53;;;11.27;;
21046;SDS011;10682;50.874;3.656;2023-03-01T04:59:07;21.60;;;11.50;;
21046;SDS011;10682;50.874;3.656;2023-03-01T05:01:36;21.73;;;11.97;;
21046;SDS011;10682;50.874;3.656;2023-03-01T05:04:05;20.17;;;10.90;;
21046;SDS011;10682;50.874;3.656;2023-03-01T05:06:33;24.40;;;11.30;;
21046;SDS011;10682;50.874;3.656;2023-03-01T05:09:00;20.50;;;11.70;;
21046;SDS011;10682;50.874;3.656;2023-03-01T05:11:27;21.37;;;11.33;;
21046;SDS011;10682;50.874;3.656;2023-03-01T05:13:59;20.70;;;10.93;;
21046;SDS011;10682;50.874;3.656;2023-03-01T05:16:26;21.13;;;11.23;;
21046;SDS011;10682;50.874;3.656;2023-03-01T05:19:00;23.20;;;11.50;;
21046;SDS011;10682;50.874;3.656;2023-03-01T05:21:38;22.53;;;11.80;;
21046;SDS011;10682;50.874;3.656;2023-03-01T05:24:25;24.13;;;11.37;;
21046;SDS011;10682;50.874;3.656;2023-03-01T05:26:54;23.13;;;11.37;;
21046;SDS011;10682;50.874;3.656;2023-03-01T05:29:22;21.93;;;11.77;;
21046;SDS011;10682;50.874;3.656;2023-03-01T05:31:53;19.87;;;11.07;;
21046;SDS011;10682;50.874;3.656;2023-03-01T05:34:25;19.83;;;10.50;;
21046;SDS011;10682;50.874;3.656;2023-03-01T05:39:58;22.17;;;11.43;;
21046;SDS011;10682;50.874;3.656;2023-03-01T05:42:25;23.20;;;12.37;;
21046;SDS011;10682;50.874;3.656;2023-03-01T05:44:52;23.67;;;12.50;;
21046;SDS011;10682;50.874;3.656;2023-03-01T05:47:19;24.83;;;12.30;;
21046;SDS011;10682;50.874;3.656;2023-03-01T05:49:47;30.77;;;13.13;;
21046;SDS011;10682;50.874;3.656;2023-03-01T05:52:16;22.73;;;11.90;;
21046;SDS011;10682;50.874;3.656;2023-03-01T05:54:43;23.23;;;11.13;;
21046;SDS011;10682;50.874;3.656;2023-03-01T05:57:10;22.63;;;11.50;;
21046;SDS011;10682;50.874;3.656;2023-03-01T05:59:37;23.57;;;11.60;;
21046;SDS011;10682;50.874;3.656;2023-03-01T06:02:04;23.10;;;12.40;;
21046;SDS011;10682;50.874;3.656;2023-03-01T06:04:31;26.77;;;12.63;;
21046;SDS011;10682;50.874;3.656;2023-03-01T06:06:59;24.80;;;12.30;;
21046;SDS011;10682;50.874;3.656;2023-03-01T06:09:26;25.20;;;11.87;;
21046;SDS011;10682;50.874;3.656;2023-03-01T06:11:53;24.87;;;12.10;;
21046;SDS011;10682;50.874;3.656;2023-03-01T06:14:20;33.13;;;13.27;;
21046;SDS011;10682;50.874;3.656;2023-03-01T06:16:47;26.13;;;13.00;;
21046;SDS011;10682;50.874;3.656;2023-03-01T06:19:15;25.20;;;13.17;;
21046;SDS011;10682;50.874;3.656;2023-03-01T06:21:42;28.40;;;13.47;;
21046;SDS011;10682;50.874;3.656;2023-03-01T06:24:09;27.37;;;13.63;;
21046;SDS011;10682;50.874;3.656;2023-03-01T06:26:36;27.70;;;14.03;;
21046;SDS011;10682;50.874;3.656;2023-03-01T06:29:03;30.47;;;13.90;;
21046;SDS011;10682;50.874;3.656;2023-03-01T06:31:30;25.43;;;13.90;;
21046;SDS011;10682;50.874;3.656;2023-03-01T06:33:58;30.60;;;14.67;;
21046;SDS011;10682;50.874;3.656;2023-03-01T06:42:03;29.20;;;14.17;;
21046;SDS011;10682;50.874;3.656;2023-03-01T06:44:30;27.20;;;14.63;;
21046;SDS011;10682;50.874;3.656;2023-03-01T06:46:57;29.10;;;14.93;;
21046;SDS011;10682;50.874;3.656;2023-03-01T06:49:25;27.90;;;14.80;;
21046;SDS011;10682;50.874;3.656;2023-03-01T06:51:52;29.20;;;14.47;;
21046;SDS011;10682;50.874;3.656;2023-03-01T06:54:19;30.87;;;14.00;;
21046;SDS011;10682;50.874;3.656;2023-03-01T06:56:48;28.37;;;14.33;;
21046;SDS011;10682;50.874;3.656;2023-03-01T06:59:17;29.40;;;14.97;;
21046;SDS011;10682;50.874;3.656;2023-03-01T07:01:44;34.53;;;14.97;;
21046;SDS011;10682;50.874;3.656;2023-03-01T07:04:12;28.30;;;15.17;;
21046;SDS011;10682;50.874;3.656;2023-03-01T07:06:40;30.57;;;15.23;;
21046;SDS011;10682;50.874;3.656;2023-03-01T07:09:07;29.93;;;15.10;;
21046;SDS011;10682;50.874;3.656;2023-03-01T07:11:34;26.87;;;14.20;;
21046;SDS011;10682;50.874;3.656;2023-03-01T07:14:01;37.77;;;16.70;;
21046;SDS011;10682;50.874;3.656;2023-03-01T07:16:28;35.57;;;15.77;;
21046;SDS011;10682;50.874;3.656;2023-03-01T07:18:56;30.97;;;15.07;;
21046;SDS011;10682;50.874;3.656;2023-03-01T07:21:25;32.07;;;15.67;;
21046;SDS011;10682;50.874;3.656;2023-03-01T07:23:52;35.97;;;16.27;;
21046;SDS011;10682;50.874;3.656;2023-03-01T07:26:19;32.30;;;16.23;;
21046;SDS011;10682;50.874;3.656;2023-03-01T07:28:46;32.73;;;16.03;;
21046;SDS011;10682;50.874;3.656;2023-03-01T07:31:13;31.77;;;16.23;;
21046;SDS011;10682;50.874;3.656;2023-03-01T07:33:55;30.03;;;15.77;;
21046;SDS011;10682;50.874;3.656;2023-03-01T07:36:22;37.20;;;16.63;;
21046;SDS011;10682;50.874;3.656;2023-03-01T07:38:50;36.50;;;15.97;;
21046;SDS011;10682;50.874;3.656;2023-03-01T07:41:18;32.13;;;16.83;;
21046;SDS011;10682;50.874;3.656;2023-03-01T07:43:45;32.53;;;16.40;;
21046;SDS011;10682;50.874;3.656;2023-03-01T07:46:12;36.33;;;16.73;;
21046;SDS011;10682;50.874;3.656;2023-03-01T07:48:39;38.40;;;16.33;;
21046;SDS011;10682;50.874;3.656;2023-03-01T07:51:06;33.50;;;15.97;;
21046;SDS011;10682;50.874;3.656;2023-03-01T07:53:34;34.13;;;16.60;;
21046;SDS011;10682;50.874;3.656;2023-03-01T07:56:05;32.00;;;16.13;;
21046;SDS011;10682;50.874;3.656;2023-03-01T07:58:39;31.83;;;16.13;;
21046;SDS011;10682;50.874;3.656;2023-03-01T08:01:14;34.47;;;17.13;;
21046;SDS011;10682;50.874;3.656;2023-03-01T08:03:43;33.80;;;14.87;;
21046;SDS011;10682;50.874;3.656;2023-03-01T08:06:11;33.77;;;15.73;;
21046;SDS011;10682;50.874;3.656;2023-03-01T08:08:41;36.03;;;16.57;;
21046;SDS011;10682;50.874;3.656;2023-03-01T08:11:10;29.67;;;15.93;;
21046;SDS011;10682;50.874;3.656;2023-03-01T08:13:38;34.00;;;15.73;;
21046;SDS011;10682;50.874;3.656;2023-03-01T08:16:21;28.40;;;14.27;;
21046;SDS011;10682;50.874;3.656;2023-03-01T08:18:48;27.63;;;13.47;;
21046;SDS011;10682;50.874;3.656;2023-03-01T08:21:16;22.30;;;11.80;;
21046;SDS011;10682;50.874;3.656;2023-03-01T08:23:43;22.43;;;11.00;;
21046;SDS011;10682;50.874;3.656;2023-03-01T08:26:18;21.17;;;10.83;;
21046;SDS011;10682;50.874;3.656;2023-03-01T08:28:47;17.93;;;9.70;;
21046;SDS011;10682;50.874;3.656;2023-03-01T08:31:35;15.93;;;9.30;;
21046;SDS011;10682;50.874;3.656;2023-03-01T08:34:06;18.27;;;9.90;;
21046;SDS011;10682;50.874;3.656;2023-03-01T08:36:41;16.50;;;9.00;;
21046;SDS011;10682;50.874;3.656;2023-03-01T08:39:11;14.27;;;8.70;;
21046;SDS011;10682;50.874;3.656;2023-03-01T08:41:42;16.27;;;8.57;;
21046;SDS011;10682;50.874;3.656;2023-03-01T08:44:12;14.53;;;8.40;;
21046;SDS011;10682;50.874;3.656;2023-03-01T08:46:43;17.07;;;8.70;;
21046;SDS011;10682;50.874;3.656;2023-03-01T08:49:13;21.57;;;9.27;;
21046;SDS011;10682;50.874;3.656;2023-03-01T08:51:45;17.47;;;8.50;;
21046;SDS011;10682;50.874;3.656;2023-03-01T08:54:17;13.17;;;8.27;;
21046;SDS011;10682;50.874;3.656;2023-03-01T08:56:47;16.93;;;8.23;;
21046;SDS011;10682;50.874;3.656;2023-03-01T08:59:15;19.20;;;8.33;;
21046;SDS011;10682;50.874;3.656;2023-03-01T09:01:43;17.73;;;9.10;;
21046;SDS011;10682;50.874;3.656;2023-03-01T09:04:11;17.90;;;8.40;;
21046;SDS011;10682;50.874;3.656;2023-03-01T09:06:38;15.63;;;8.30;;
21046;SDS011;10682;50.874;3.656;2023-03-01T09:09:06;14.43;;;8.50;;
21046;SDS011;10682;50.874;3.656;2023-03-01T09:11:41;15.87;;;8.90;;
21046;SDS011;10682;50.874;3.656;2023-03-01T09:14:10;15.23;;;8.10;;
21046;SDS011;10682;50.874;3.656;2023-03-01T09:16:39;16.13;;;8.40;;
21046;SDS011;10682;50.874;3.656;2023-03-01T09:19:06;16.03;;;8.97;;
21046;SDS011;10682;50.874;3.656;2023-03-01T09:21:33;14.63;;;9.00;;
21046;SDS011;10682;50.874;3.656;2023-03-01T09:24:08;16.13;;;8.83;;
21046;SDS011;10682;50.874;3.656;2023-03-01T09:26:40;18.23;;;9.03;;
21046;SDS011;10682;50.874;3.656;2023-03-01T09:29:08;18.13;;;9.23;;
21046;SDS011;10682;50.874;3.656;2023-03-01T09:31:36;18.37;;;9.20;;
21046;SDS011;10682;50.874;3.656;2023-03-01T09:34:03;16.53;;;8.77;;
21046;SDS011;10682;50.874;3.656;2023-03-01T09:36:31;13.90;;;8.17;;
21046;SDS011;10682;50.874;3.656;2023-03-01T09:38:59;16.03;;;8.00;;
21046;SDS011;10682;50.874;3.656;2023-03-01T09:41:32;14.17;;;7.97;;
21046;SDS011;10682;50.874;3.656;2023-03-01T09:46:48;20.20;;;9.70;;
21046;SDS011;10682;50.874;3.656;2023-03-01T09:49:18;15.97;;;8.40;;
21046;SDS011;10682;50.874;3.656;2023-03-01T09:52:23;12.63;;;8.00;;
21046;SDS011;10682;50.874;3.656;2023-03-01T09:54:55;15.63;;;8.40;;
21046;SDS011;10682;50.874;3.656;2023-03-01T09:57:30;16.40;;;8.70;;
21046;SDS011;10682;50.874;3.656;2023-03-01T10:00:23;20.67;;;7.93;;
21046;SDS011;10682;50.874;3.656;2023-03-01T10:03:00;20.83;;;8.87;;
21046;SDS011;10682;50.874;3.656;2023-03-01T10:05:41;16.50;;;8.17;;
21046;SDS011;10682;50.874;3.656;2023-03-01T10:09:03;14.47;;;8.40;;
21046;SDS011;10682;50.874;3.656;2023-03-01T10:17:01;18.40;;;8.27;;
21046;SDS011;10682;50.874;3.656;2023-03-01T10:19:42;16.20;;;8.60;;
21046;SDS011;10682;50.874;3.656;2023-03-01T10:22:19;12.50;;;7.97;;
21046;SDS011;10682;50.874;3.656;2023-03-01T10:24:56;14.23;;;8.03;;
21046;SDS011;10682;50.874;3.656;2023-03-01T10:27:37;14.50;;;7.80;;
21046;SDS011;10682;50.874;3.656;2023-03-01T10:30:22;15.40;;;6.87;;
21046;SDS011;10682;50.874;3.656;2023-03-01T10:33:02;14.60;;;7.63;;
21046;SDS011;10682;50.874;3.656;2023-03-01T10:35:36;10.90;;;6.80;;
21046;SDS011;10682;50.874;3.656;2023-03-01T10:40:36;12.73;;;7.30;;
21046;SDS011;10682;50.874;3.656;2023-03-01T10:43:32;14.97;;;7.90;;
21046;SDS011;10682;50.874;3.656;2023-03-01T10:46:22;13.70;;;7.67;;
21046;SDS011;10682;50.874;3.656;2023-03-01T10:51:46;12.77;;;7.40;;
21046;SDS011;10682;50.874;3.656;2023-03-01T10:54:31;12.47;;;7.77;;
21046;SDS011;10682;50.874;3.656;2023-03-01T10:57:00;13.13;;;7.80;;
21046;SDS011;10682;50.874;3.656;2023-03-01T10:59:31;11.47;;;7.27;;
21046;SDS011;10682;50.874;3.656;2023-03-01T11:04:58;14.37;;;7.67;;
21046;SDS011;10682;50.874;3.656;2023-03-01T11:08:14;14.30;;;7.73;;
21046;SDS011;10682;50.874;3.656;2023-03-01T11:10:36;13.67;;;8.03;;
21046;SDS011;10682;50.874;3.656;2023-03-01T11:15:42;13.73;;;7.77;;
21046;SDS011;10682;50.874;3.656;2023-03-01T11:18:25;12.17;;;7.70;;
21046;SDS011;10682;50.874;3.656;2023-03-01T11:21:11;16.43;;;8.30;;
21046;SDS011;10682;50.874;3.656;2023-03-01T11:23:39;11.37;;;7.80;;
21046;SDS011;10682;50.874;3.656;2023-03-01T11:26:08;14.00;;;7.53;;
21046;SDS011;10682;50.874;3.656;2023-03-01T11:28:38;12.93;;;7.83;;
21046;SDS011;10682;50.874;3.656;2023-03-01T11:31:09;17.43;;;8.13;;
21046;SDS011;10682;50.874;3.656;2023-03-01T11:34:05;15.97;;;7.60;;
21046;SDS011;10682;50.874;3.656;2023-03-01T11:36:43;19.57;;;7.83;;
21046;SDS011;10682;50.874;3.656;2023-03-01T11:39:29;13.43;;;8.10;;
21046;SDS011;10682;50.874;3.656;2023-03-01T11:42:20;16.60;;;8.37;;
21046;SDS011;10682;50.874;3.656;2023-03-01T11:45:11;17.93;;;8.23;;
21046;SDS011;10682;50.874;3.656;2023-03-01T11:56:01;14.37;;;7.93;;
21046;SDS011;10682;50.874;3.656;2023-03-01T11:59:15;12.70;;;7.57;;
21046;SDS011;10682;50.874;3.656;2023-03-01T12:02:58;15.03;;;7.60;;
21046;SDS011;10682;50.874;3.656;2023-03-01T12:05:35;13.97;;;8.33;;
21046;SDS011;10682;50.874;3.656;2023-03-01T12:08:33;11.93;;;7.20;;
21046;SDS011;10682;50.874;3.656;2023-03-01T12:11:26;11.17;;;7.30;;
21046;SDS011;10682;50.874;3.656;2023-03-01T12:14:39;13.50;;;7.30;;
21046;SDS011;10682;50.874;3.656;2023-03-01T12:17:40;12.23;;;7.43;;
21046;SDS011;10682;50.874;3.656;2023-03-01T12:24:08;14.03;;;7.57;;
21046;SDS011;10682;50.874;3.656;2023-03-01T12:30:35;13.00;;;7.47;;
21046;SDS011;10682;50.874;3.656;2023-03-01T12:33:31;13.60;;;7.57;;
21046;SDS011;10682;50.874;3.656;2023-03-01T12:36:31;11.73;;;6.73;;
21046;SDS011;10682;50.874;3.656;2023-03-01T12:42:23;12.00;;;7.03;;
21046;SDS011;10682;50.874;3.656;2023-03-01T12:51:28;9.50;;;7.00;;
21046;SDS011;10682;50.874;3.656;2023-03-01T12:53:59;13.27;;;7.37;;
21046;SDS011;10682;50.874;3.656;2023-03-01T12:56:59;9.67;;;6.70;;
21046;SDS011;10682;50.874;3.656;2023-03-01T13:02:55;11.73;;;6.83;;
21046;SDS011;10682;50.874;3.656;2023-03-01T13:05:06;9.93;;;7.10;;
21046;SDS011;10682;50.874;3.656;2023-03-01T13:08:01;12.57;;;7.33;;
21046;SDS011;10682;50.874;3.656;2023-03-01T13:11:00;14.03;;;7.57;;
21046;SDS011;10682;50.874;3.656;2023-03-01T13:13:30;15.30;;;7.33;;
21046;SDS011;10682;50.874;3.656;2023-03-01T13:15:57;13.57;;;7.20;;
21046;SDS011;10682;50.874;3.656;2023-03-01T13:18:49;10.90;;;6.97;;
21046;SDS011;10682;50.874;3.656;2023-03-01T13:21:28;11.73;;;6.77;;
21046;SDS011;10682;50.874;3.656;2023-03-01T13:23:57;10.07;;;6.60;;
21046;SDS011;10682;50.874;3.656;2023-03-01T13:26:24;16.93;;;7.37;;
21046;SDS011;10682;50.874;3.656;2023-03-01T13:28:56;12.23;;;6.77;;
21046;SDS011;10682;50.874;3.656;2023-03-01T13:34:02;11.00;;;6.93;;
21046;SDS011;10682;50.874;3.656;2023-03-01T13:42:28;11.27;;;6.73;;
21046;SDS011;10682;50.874;3.656;2023-03-01T13:45:13;11.13;;;7.23;;
21046;SDS011;10682;50.874;3.656;2023-03-01T13:47:48;14.43;;;6.87;;
21046;SDS011;10682;50.874;3.656;2023-03-01T13:50:22;15.97;;;7.20;;
21046;SDS011;10682;50.874;3.656;2023-03-01T13:52:59;12.10;;;6.93;;
21046;SDS011;10682;50.874;3.656;2023-03-01T13:55:34;13.10;;;6.90;;
21046;SDS011;10682;50.874;3.656;2023-03-01T13:58:21;10.67;;;7.13;;
21046;SDS011;10682;50.874;3.656;2023-03-01T14:01:02;12.10;;;6.90;;
21046;SDS011;10682;50.874;3.656;2023-03-01T14:03:32;15.10;;;6.80;;
21046;SDS011;10682;50.874;3.656;2023-03-01T14:06:09;11.70;;;7.30;;
21046;SDS011;10682;50.874;3.656;2023-03-01T14:08:47;12.30;;;6.50;;
21046;SDS011;10682;50.874;3.656;2023-03-01T14:17:27;11.80;;;6.17;;
21046;SDS011;10682;50.874;3.656;2023-03-01T14:22:45;10.53;;;6.50;;
21046;SDS011;10682;50.874;3.656;2023-03-01T14:25:21;9.13;;;5.90;;
21046;SDS011;10682;50.874;3.656;2023-03-01T14:30:32;9.97;;;5.90;;
21046;SDS011;10682;50.874;3.656;2023-03-01T14:41:32;13.10;;;6.10;;
21046;SDS011;10682;50.874;3.656;2023-03-01T14:44:03;10.83;;;5.67;;
21046;SDS011;10682;50.874;3.656;2023-03-01T14:46:35;13.47;;;6.00;;
21046;SDS011;10682;50.874;3.656;2023-03-01T14:51:42;10.43;;;5.63;;
21046;SDS011;10682;50.874;3.656;2023-03-01T14:54:42;10.57;;;6.13;;
21046;SDS011;10682;50.874;3.656;2023-03-01T14:57:18;10.63;;;5.63;;
21046;SDS011;10682;50.874;3.656;2023-03-01T14:59:52;9.27;;;5.37;;
21046;SDS011;10682;50.874;3.656;2023-03-01T15:02:25;11.53;;;6.53;;
21046;SDS011;10682;50.874;3.656;2023-03-01T15:04:57;11.53;;;5.97;;
21046;SDS011;10682;50.874;3.656;2023-03-01T15:07:30;10.93;;;6.00;;
21046;SDS011;10682;50.874;3.656;2023-03-01T15:10:01;8.47;;;6.00;;
21046;SDS011;10682;50.874;3.656;2023-03-01T15:12:39;14.70;;;6.70;;
21046;SDS011;10682;50.874;3.656;2023-03-01T15:18:00;12.77;;;6.10;;
21046;SDS011;10682;50.874;3.656;2023-03-01T15:20:48;14.53;;;6.40;;
21046;SDS011;10682;50.874;3.656;2023-03-01T15:23:24;10.07;;;6.90;;
21046;SDS011;10682;50.874;3.656;2023-03-01T15:25:55;14.60;;;7.20;;
21046;SDS011;10682;50.874;3.656;2023-03-01T15:28:27;12.40;;;6.03;;
21046;SDS011;10682;50.874;3.656;2023-03-01T15:31:02;12.27;;;6.37;;
21046;SDS011;10682;50.874;3.656;2023-03-01T15:33:41;14.07;;;6.07;;
21046;SDS011;10682;50.874;3.656;2023-03-01T15:42:35;13.17;;;6.53;;
21046;SDS011;10682;50.874;3.656;2023-03-01T15:45:09;12.37;;;7.23;;
21046;SDS011;10682;50.874;3.656;2023-03-01T15:47:50;12.60;;;6.73;;
21046;SDS011;10682;50.874;3.656;2023-03-01T15:50:21;12.80;;;6.67;;
21046;SDS011;10682;50.874;3.656;2023-03-01T15:52:53;12.30;;;6.70;;
21046;SDS011;10682;50.874;3.656;2023-03-01T15:55:25;10.40;;;6.47;;
21046;SDS011;10682;50.874;3.656;2023-03-01T15:58:00;11.17;;;6.33;;
21046;SDS011;10682;50.874;3.656;2023-03-01T16:00:36;10.83;;;6.53;;
21046;SDS011;10682;50.874;3.656;2023-03-01T16:03:10;13.13;;;6.63;;
21046;SDS011;10682;50.874;3.656;2023-03-01T16:05:38;11.40;;;6.20;;
21046;SDS011;10682;50.874;3.656;2023-03-01T16:08:05;14.23;;;6.60;;
21046;SDS011;10682;50.874;3.656;2023-03-01T16:10:33;11.43;;;6.40;;
21046;SDS011;10682;50.874;3.656;2023-03-01T16:13:01;10.03;;;6.37;;
21046;SDS011;10682;50.874;3.656;2023-03-01T16:18:25;12.03;;;6.33;;
21046;SDS011;10682;50.874;3.656;2023-03-01T16:20:52;9.83;;;6.60;;
21046;SDS011;10682;50.874;3.656;2023-03-01T16:23:22;13.37;;;7.13;;
21046;SDS011;10682;50.874;3.656;2023-03-01T16:25:51;13.70;;;6.63;;
21046;SDS011;10682;50.874;3.656;2023-03-01T16:28:25;12.03;;;6.50;;
21046;SDS011;10682;50.874;3.656;2023-03-01T16:30:54;13.73;;;7.00;;
21046;SDS011;10682;50.874;3.656;2023-03-01T16:33:21;11.60;;;6.50;;
21046;SDS011;10682;50.874;3.656;2023-03-01T16:35:58;17.50;;;6.70;;
21046;SDS011;10682;50.874;3.656;2023-03-01T16:38:26;12.97;;;6.60;;
21046;SDS011;10682;50.874;3.656;2023-03-01T16:40:55;14.10;;;6.67;;
21046;SDS011;10682;50.874;3.656;2023-03-01T16:43:22;15.17;;;6.80;;
21046;SDS011;10682;50.874;3.656;2023-03-01T16:45:49;14.83;;;6.90;;
21046;SDS011;10682;50.874;3.656;2023-03-01T16:48:16;11.20;;;7.03;;
21046;SDS011;10682;50.874;3.656;2023-03-01T16:50:44;15.73;;;7.37;;
21046;SDS011;10682;50.874;3.656;2023-03-01T16:53:11;12.40;;;6.80;;
21046;SDS011;10682;50.874;3.656;2023-03-01T16:55:38;16.47;;;7.40;;
21046;SDS011;10682;50.874;3.656;2023-03-01T16:58:11;11.40;;;6.83;;
21046;SDS011;10682;50.874;3.656;2023-03-01T17:00:38;12.37;;;7.07;;
21046;SDS011;10682;50.874;3.656;2023-03-01T17:03:05;22.13;;;7.20;;
21046;SDS011;10682;50.874;3.656;2023-03-01T17:05:32;11.63;;;7.17;;